sensor_id;sensor_type;location;lat;lon;timestamp;pressure;altitude;pressure_sealevel;temperature;humidity
73671;BME280;61968;48.178;11.566;2024-02-14T00:01:56;96202.88;;;5.24;37.90
73671;BME280;61968;48.178;11.566;2024-02-14T00:04:23;96203.41;;;5.34;37.51
73671;BME280;61968;48.178;11.566;2024-02-14T00:06:50;96209.72;;;5.40;37.72
73671;BME280;61968;48.178;11.566;2024-02-14T00:09:16;96203.41;;;5.34;37.56
73671;BME280;61968;48.178;11.566;2024-02-14T00:11:42;96208.56;;;5.27;37.71
73671;BME280;61968;48.178;11.566;2024-02-14T00:14:09;96210.19;;;5.28;37.82
73671;BME280;61968;48.178;11.566;2024-02-14T00:16:35;96206.59;;;5.29;37.67
73671;BME280;61968;48.178;11.566;2024-02-14T00:19:04;96212.75;;;5.22;37.84
73671;BME280;61968;48.178;11.566;2024-02-14T00:21:31;96203.63;;;5.18;37.75
73671;BME280;61968;48.178;11.566;2024-02-14T00:23:59;96213.09;;;5.19;37.97
73671;BME280;61968;48.178;11.566;2024-02-14T00:26:26;96205.44;;;5.17;37.91
73671;BME280;61968;48.178;11.566;2024-02-14T00:28:53;96214.03;;;5.11;37.82
73671;BME280;61968;48.178;11.566;2024-02-14T00:31:19;96206.53;;;5.23;38.12
73671;BME280;61968;48.178;11.566;2024-02-14T00:33:46;96209.81;;;5.31;37.72
73671;BME280;61968;48.178;11.566;2024-02-14T00:36:12;96203.31;;;5.27;37.53
73671;BME280;61968;48.178;11.566;2024-02-14T00:38:40;96216.16;;;5.22;37.76
73671;BME280;61968;48.178;11.566;2024-02-14T00:41:06;96213.31;;;5.17;37.68
73671;BME280;61968;48.178;11.566;2024-02-14T00:43:33;96212.75;;;5.22;38.08
73671;BME280;61968;48.178;11.566;2024-02-14T00:45:59;96214.25;;;5.31;37.50
73671;BME280;61968;48.178;11.566;2024-02-14T00:48:25;96220.53;;;5.15;37.75
73671;BME280;61968;48.178;11.566;2024-02-14T00:50:52;96219.06;;;5.27;37.64
73671;BME280;61968;48.178;11.566;2024-02-14T00:53:19;96214.25;;;5.31;37.79
73671;BME280;61968;48.178;11.566;2024-02-14T00:55:47;96219.88;;;5.28;37.82
73671;BME280;61968;48.178;11.566;2024-02-14T00:58:13;96211.47;;;5.32;37.80
73671;BME280;61968;48.178;11.566;2024-02-14T01:00:40;96213.06;;;5.33;37.76
73671;BME280;61968;48.178;11.566;2024-02-14T01:03:06;96206.97;;;5.26;37.74
73671;BME280;61968;48.178;11.566;2024-02-14T01:05:33;96214.13;;;5.18;37.89
73671;BME280;61968;48.178;11.566;2024-02-14T01:07:59;96220.03;;;5.05;38.07
73671;BME280;61968;48.178;11.566;2024-02-14T01:10:25;96224.53;;;5.11;37.83
73671;BME280;61968;48.178;11.566;2024-02-14T01:12:53;96224.59;;;5.18;38.07
73671;BME280;61968;48.178;11.566;2024-02-14T01:15:20;96221.16;;;5.17;37.85
73671;BME280;61968;48.178;11.566;2024-02-14T01:17:47;96220.81;;;5.20;37.75
73671;BME280;61968;48.178;11.566;2024-02-14T01:20:13;96216.03;;;5.09;38.04
73671;BME280;61968;48.178;11.566;2024-02-14T01:22:40;96220.91;;;5.12;37.95
73671;BME280;61968;48.178;11.566;2024-02-14T01:25:07;96217.75;;;5.17;37.78
73671;BME280;61968;48.178;11.566;2024-02-14T01:27:36;96218.91;;;5.14;37.96
73671;BME280;61968;48.178;11.566;2024-02-14T01:30:04;96215.59;;;5.05;37.75
73671;BME280;61968;48.178;11.566;2024-02-14T01:32:31;96217.28;;;5.13;37.90
73671;BME280;61968;48.178;11.566;2024-02-14T01:34:57;96217.03;;;4.93;38.12
73671;BME280;61968;48.178;11.566;2024-02-14T01:37:24;96221.56;;;4.99;38.02
73671;BME280;61968;48.178;11.566;2024-02-14T01:39:51;96218.56;;;5.17;37.72
73671;BME280;61968;48.178;11.566;2024-02-14T01:42:17;96220.81;;;5.20;37.54
73671;BME280;61968;48.178;11.566;2024-02-14T01:44:44;96220.44;;;5.23;37.46
73671;BME280;61968;48.178;11.566;2024-02-14T01:47:12;96220.66;;;5.28;37.55
73671;BME280;61968;48.178;11.566;2024-02-14T01:49:39;96221.03;;;5.25;37.55
73671;BME280;61968;48.178;11.566;2024-02-14T01:52:08;96218.25;;;5.27;37.61
73671;BME280;61968;48.178;11.566;2024-02-14T01:54:34;96219.00;;;5.21;37.66
73671;BME280;61968;48.178;11.566;2024-02-14T01:57:01;96220.81;;;5.20;37.60
73671;BME280;61968;48.178;11.566;2024-02-14T01:59:28;96227.50;;;5.23;37.70
73671;BME280;61968;48.178;11.566;2024-02-14T02:01:55;96227.38;;;5.16;37.62
73671;BME280;61968;48.178;11.566;2024-02-14T02:04:23;96224.53;;;5.11;37.85
73671;BME280;61968;48.178;11.566;2024-02-14T02:06:50;96228.50;;;5.07;37.60
73671;BME280;61968;48.178;11.566;2024-02-14T02:09:17;96221.84;;;5.04;37.66
73671;BME280;61968;48.178;11.566;2024-02-14T02:11:45;96225.63;;;5.02;37.86
73671;BME280;61968;48.178;11.566;2024-02-14T02:14:13;96225.63;;;5.02;37.62
73671;BME280;61968;48.178;11.566;2024-02-14T02:16:39;96222.00;;;5.03;37.57
73671;BME280;61968;48.178;11.566;2024-02-14T02:19:06;96224.53;;;4.96;37.99
73671;BME280;61968;48.178;11.566;2024-02-14T02:21:36;96234.94;;;5.04;37.95
73671;BME280;61968;48.178;11.566;2024-02-14T02:24:05;96225.25;;;5.05;37.33
73671;BME280;61968;48.178;11.566;2024-02-14T02:26:32;96229.22;;;5.01;37.64
73671;BME280;61968;48.178;11.566;2024-02-14T02:28:58;96231.47;;;5.04;37.24
73671;BME280;61968;48.178;11.566;2024-02-14T02:31:25;96228.84;;;5.04;37.24
73671;BME280;61968;48.178;11.566;2024-02-14T02:33:51;96226.16;;;5.12;37.23
73671;BME280;61968;48.178;11.566;2024-02-14T02:36:18;96232.09;;;5.21;37.07
73671;BME280;61968;48.178;11.566;2024-02-14T02:38:44;96229.56;;;5.12;37.22
73671;BME280;61968;48.178;11.566;2024-02-14T02:41:12;96220.16;;;5.18;37.17
73671;BME280;61968;48.178;11.566;2024-02-14T02:43:38;96224.31;;;5.12;37.18
73671;BME280;61968;48.178;11.566;2024-02-14T02:46:04;96221.09;;;5.10;37.04
73671;BME280;61968;48.178;11.566;2024-02-14T02:48:33;96218.56;;;5.17;36.91
73671;BME280;61968;48.178;11.566;2024-02-14T02:51:00;96227.16;;;5.11;37.04
73671;BME280;61968;48.178;11.566;2024-02-14T02:53:26;96224.69;;;5.09;36.95
73671;BME280;61968;48.178;11.566;2024-02-14T02:55:52;96231.66;;;5.17;37.01
73671;BME280;61968;48.178;11.566;2024-02-14T02:58:21;96221.47;;;5.07;36.97
73671;BME280;61968;48.178;11.566;2024-02-14T03:00:47;96227.16;;;5.11;36.94
73671;BME280;61968;48.178;11.566;2024-02-14T03:03:15;96225.34;;;5.11;36.96
73671;BME280;61968;48.178;11.566;2024-02-14T03:05:42;96230.56;;;5.11;37.11
73671;BME280;61968;48.178;11.566;2024-02-14T03:08:10;96226.22;;;5.19;36.69
73671;BME280;61968;48.178;11.566;2024-02-14T03:10:40;96224.16;;;5.14;37.11
73671;BME280;61968;48.178;11.566;2024-02-14T03:13:07;96221.34;;;5.15;36.96
73671;BME280;61968;48.178;11.566;2024-02-14T03:15:38;96229.94;;;5.09;37.11
73671;BME280;61968;48.178;11.566;2024-02-14T03:18:04;96232.31;;;5.04;36.59
73671;BME280;61968;48.178;11.566;2024-02-14T03:20:33;96229.50;;;5.06;36.98
73671;BME280;61968;48.178;11.566;2024-02-14T03:23:00;96235.75;;;5.05;37.14
73671;BME280;61968;48.178;11.566;2024-02-14T03:25:26;96235.81;;;5.11;37.04
73671;BME280;61968;48.178;11.566;2024-02-14T03:27:53;96238.53;;;5.03;36.84
73671;BME280;61968;48.178;11.566;2024-02-14T03:30:19;96237.72;;;5.03;37.27
73671;BME280;61968;48.178;11.566;2024-02-14T03:32:49;96231.59;;;4.96;37.22
73671;BME280;61968;48.178;11.566;2024-02-14T03:35:15;96234.09;;;5.04;37.44
73671;BME280;61968;48.178;11.566;2024-02-14T03:37:44;96231.31;;;5.05;37.52
73671;BME280;61968;48.178;11.566;2024-02-14T03:40:13;96234.09;;;5.04;37.58
73671;BME280;61968;48.178;11.566;2024-02-14T03:42:40;96239.16;;;5.05;37.63
73671;BME280;61968;48.178;11.566;2024-02-14T03:45:07;96229.50;;;5.06;37.64
73671;BME280;61968;48.178;11.566;2024-02-14T03:47:34;96235.00;;;5.11;37.24
73671;BME280;61968;48.178;11.566;2024-02-14T03:50:07;96244.19;;;5.22;36.99
73671;BME280;61968;48.178;11.566;2024-02-14T03:52:34;96240.78;;;5.06;36.99
73671;BME280;61968;48.178;11.566;2024-02-14T03:55:01;96237.34;;;5.06;37.06
73671;BME280;61968;48.178;11.566;2024-02-14T03:57:28;96239.34;;;5.04;36.75
73671;BME280;61968;48.178;11.566;2024-02-14T03:59:55;96236.09;;;5.02;36.88
73671;BME280;61968;48.178;11.566;2024-02-14T04:02:21;96232.56;;;4.95;37.06
73671;BME280;61968;48.178;11.566;2024-02-14T04:04:48;96231.13;;;4.92;37.00
73671;BME280;61968;48.178;11.566;2024-02-14T04:07:17;96231.03;;;4.85;37.30
73671;BME280;61968;48.178;11.566;2024-02-14T04:09:43;96224.63;;;4.88;36.83
73671;BME280;61968;48.178;11.566;2024-02-14T04:12:10;96230.31;;;4.91;37.08
73671;BME280;61968;48.178;11.566;2024-02-14T04:14:37;96232.03;;;4.84;36.84
73671;BME280;61968;48.178;11.566;2024-02-14T04:17:04;96231.75;;;4.79;37.13
73671;BME280;61968;48.178;11.566;2024-02-14T04:19:32;96230.66;;;4.74;36.91
73671;BME280;61968;48.178;11.566;2024-02-14T04:21:59;96228.94;;;4.66;37.52
73671;BME280;61968;48.178;11.566;2024-02-14T04:24:27;96225.78;;;4.70;37.31
73671;BME280;61968;48.178;11.566;2024-02-14T04:26:53;96224.88;;;4.78;36.99
73671;BME280;61968;48.178;11.566;2024-02-14T04:29:20;96221.19;;;4.73;37.01
73671;BME280;61968;48.178;11.566;2024-02-14T04:31:47;96232.47;;;4.73;37.06
73671;BME280;61968;48.178;11.566;2024-02-14T04:34:14;96228.66;;;4.61;37.22
73671;BME280;61968;48.178;11.566;2024-02-14T04:36:40;96229.47;;;4.61;37.31
73671;BME280;61968;48.178;11.566;2024-02-14T04:39:07;96228.59;;;4.54;37.56
73671;BME280;61968;48.178;11.566;2024-02-14T04:41:35;96233.63;;;4.56;37.80
73671;BME280;61968;48.178;11.566;2024-02-14T04:44:04;96230.03;;;4.72;37.17
73671;BME280;61968;48.178;11.566;2024-02-14T04:46:31;96232.38;;;4.66;37.35
73671;BME280;61968;48.178;11.566;2024-02-14T04:48:57;96226.50;;;4.79;36.84
73671;BME280;61968;48.178;11.566;2024-02-14T04:51:24;96229.72;;;4.89;36.68
73671;BME280;61968;48.178;11.566;2024-02-14T04:53:50;96227.16;;;4.81;36.32
73671;BME280;61968;48.178;11.566;2024-02-14T04:56:17;96225.59;;;4.72;37.03
73671;BME280;61968;48.178;11.566;2024-02-14T04:58:45;96228.88;;;4.74;36.84
73671;BME280;61968;48.178;11.566;2024-02-14T05:01:11;96220.28;;;4.65;36.56
73671;BME280;61968;48.178;11.566;2024-02-14T05:03:38;96221.72;;;4.53;36.97
73671;BME280;61968;48.178;11.566;2024-02-14T05:06:05;96220.16;;;4.59;37.18
73671;BME280;61968;48.178;11.566;2024-02-14T05:08:31;96226.31;;;4.51;37.21
73671;BME280;61968;48.178;11.566;2024-02-14T05:10:58;96225.88;;;4.62;36.67
73671;BME280;61968;48.178;11.566;2024-02-14T05:13:25;96220.09;;;4.67;36.76
73671;BME280;61968;48.178;11.566;2024-02-14T05:15:53;96220.91;;;4.67;36.82
73671;BME280;61968;48.178;11.566;2024-02-14T05:18:19;96215.41;;;4.77;36.96
73671;BME280;61968;48.178;11.566;2024-02-14T05:20:45;96218.03;;;4.77;36.53
73671;BME280;61968;48.178;11.566;2024-02-14T05:23:12;96216.50;;;4.68;36.75
73671;BME280;61968;48.178;11.566;2024-02-14T05:25:38;96208.28;;;4.71;36.69
73671;BME280;61968;48.178;11.566;2024-02-14T05:28:05;96210.41;;;4.82;36.69
73671;BME280;61968;48.178;11.566;2024-02-14T05:30:32;96214.69;;;4.83;36.23
73671;BME280;61968;48.178;11.566;2024-02-14T05:33:00;96220.19;;;4.88;36.34
73671;BME280;61968;48.178;11.566;2024-02-14T05:35:27;96218.47;;;4.81;36.55
73671;BME280;61968;48.178;11.566;2024-02-14T05:37:53;96225.16;;;4.68;36.89
73671;BME280;61968;48.178;11.566;2024-02-14T05:40:21;96224.59;;;4.58;36.85
73671;BME280;61968;48.178;11.566;2024-02-14T05:42:47;96225.53;;;4.65;36.96
73671;BME280;61968;48.178;11.566;2024-02-14T05:45:13;96225.97;;;4.84;36.68
73671;BME280;61968;48.178;11.566;2024-02-14T05:47:40;96227.06;;;4.60;36.72
73671;BME280;61968;48.178;11.566;2024-02-14T05:50:09;96226.25;;;4.59;36.55
73671;BME280;61968;48.178;11.566;2024-02-14T05:52:36;96229.59;;;4.68;36.62
73671;BME280;61968;48.178;11.566;2024-02-14T05:55:03;96231.56;;;4.66;36.92
73671;BME280;61968;48.178;11.566;2024-02-14T05:57:30;96238.44;;;4.67;40.92
73671;BME280;61968;48.178;11.566;2024-02-14T05:59:57;96248.09;;;5.26;44.74
73671;BME280;61968;48.178;11.566;2024-02-14T06:02:23;96235.59;;;5.64;37.97
73671;BME280;61968;48.178;11.566;2024-02-14T06:04:50;96242.03;;;5.83;45.78
73671;BME280;61968;48.178;11.566;2024-02-14T06:07:17;96239.72;;;6.72;40.77
73671;BME280;61968;48.178;11.566;2024-02-14T06:09:44;96236.53;;;6.49;36.75
73671;BME280;61968;48.178;11.566;2024-02-14T06:12:10;96236.91;;;6.46;35.64
73671;BME280;61968;48.178;11.566;2024-02-14T06:14:37;96243.03;;;6.53;36.46
73671;BME280;61968;48.178;11.566;2024-02-14T06:17:04;96247.03;;;6.49;36.84
73671;BME280;61968;48.178;11.566;2024-02-14T06:19:31;96253.44;;;6.40;39.20
73671;BME280;61968;48.178;11.566;2024-02-14T06:21:58;96249.53;;;6.57;36.29
73671;BME280;61968;48.178;11.566;2024-02-14T06:24:26;96249.19;;;6.67;34.34
73671;BME280;61968;48.178;11.566;2024-02-14T06:26:53;96251.00;;;6.66;36.84
73671;BME280;61968;48.178;11.566;2024-02-14T06:29:19;96250.53;;;6.56;36.34
73671;BME280;61968;48.178;11.566;2024-02-14T06:31:46;96249.16;;;6.60;36.18
73671;BME280;61968;48.178;11.566;2024-02-14T06:34:12;96248.75;;;6.63;34.12
73671;BME280;61968;48.178;11.566;2024-02-14T06:36:39;96262.03;;;6.27;33.85
73671;BME280;61968;48.178;11.566;2024-02-14T06:39:06;96263.41;;;6.01;34.26
73671;BME280;61968;48.178;11.566;2024-02-14T06:41:34;96261.72;;;5.72;34.56
73671;BME280;61968;48.178;11.566;2024-02-14T06:44:01;96270.69;;;5.63;34.67
73671;BME280;61968;48.178;11.566;2024-02-14T06:46:27;96267.56;;;5.53;35.07
73671;BME280;61968;48.178;11.566;2024-02-14T06:48:53;96264.41;;;5.43;35.07
73671;BME280;61968;48.178;11.566;2024-02-14T06:51:21;96261.81;;;5.28;35.49
73671;BME280;61968;48.178;11.566;2024-02-14T06:53:47;96257.38;;;5.28;35.58
73671;BME280;61968;48.178;11.566;2024-02-14T06:56:14;96254.06;;;5.34;35.56
73671;BME280;61968;48.178;11.566;2024-02-14T06:58:41;96254.72;;;5.43;35.89
73671;BME280;61968;48.178;11.566;2024-02-14T07:01:08;96257.34;;;5.43;35.76
73671;BME280;61968;48.178;11.566;2024-02-14T07:03:37;96263.91;;;5.32;35.91
73671;BME280;61968;48.178;11.566;2024-02-14T07:06:04;96261.19;;;5.41;36.05
73671;BME280;61968;48.178;11.566;2024-02-14T07:08:31;96269.66;;;5.43;35.84
73671;BME280;61968;48.178;11.566;2024-02-14T07:10:57;96274.28;;;5.41;36.08
73671;BME280;61968;48.178;11.566;2024-02-14T07:13:24;96273.19;;;5.50;35.62
73671;BME280;61968;48.178;11.566;2024-02-14T07:15:51;96283.84;;;5.48;35.80
73671;BME280;61968;48.178;11.566;2024-02-14T07:18:18;96279.56;;;5.62;35.60
73671;BME280;61968;48.178;11.566;2024-02-14T07:20:45;96283.53;;;5.58;36.56
73671;BME280;61968;48.178;11.566;2024-02-14T07:23:11;96288.56;;;5.53;36.68
73671;BME280;61968;48.178;11.566;2024-02-14T07:25:38;96288.28;;;5.48;35.65
73671;BME280;61968;48.178;11.566;2024-02-14T07:28:04;96291.75;;;5.33;35.73
73671;BME280;61968;48.178;11.566;2024-02-14T07:30:31;96293.72;;;5.31;35.86
73671;BME280;61968;48.178;11.566;2024-02-14T07:32:59;96297.91;;;5.41;35.86
73671;BME280;61968;48.178;11.566;2024-02-14T07:35:25;96297.78;;;5.49;35.92
73671;BME280;61968;48.178;11.566;2024-02-14T07:37:51;96300.03;;;5.52;35.67
73671;BME280;61968;48.178;11.566;2024-02-14T07:40:18;96297.53;;;5.44;35.63
73671;BME280;61968;48.178;11.566;2024-02-14T07:42:45;96298.78;;;5.48;35.28
73671;BME280;61968;48.178;11.566;2024-02-14T07:45:11;96310.78;;;5.57;34.41
73671;BME280;61968;48.178;11.566;2024-02-14T07:47:38;96309.97;;;5.56;34.28
73671;BME280;61968;48.178;11.566;2024-02-14T07:50:07;96318.28;;;5.60;34.59
73671;BME280;61968;48.178;11.566;2024-02-14T07:52:34;96324.91;;;5.56;34.56
73671;BME280;61968;48.178;11.566;2024-02-14T07:55:01;96323.13;;;5.42;35.14
73671;BME280;61968;48.178;11.566;2024-02-14T07:57:27;96316.13;;;5.49;34.45
73671;BME280;61968;48.178;11.566;2024-02-14T07:59:54;96311.47;;;5.29;34.81
73671;BME280;61968;48.178;11.566;2024-02-14T08:02:20;96320.88;;;5.09;34.94
73671;BME280;61968;48.178;11.566;2024-02-14T08:04:47;96321.16;;;5.29;34.98
73671;BME280;61968;48.178;11.566;2024-02-14T08:07:14;96309.44;;;5.31;34.53
73671;BME280;61968;48.178;11.566;2024-02-14T08:09:41;96311.81;;;5.41;34.55
73671;BME280;61968;48.178;11.566;2024-02-14T08:12:07;96315.25;;;5.42;34.65
73671;BME280;61968;48.178;11.566;2024-02-14T08:14:34;96314.69;;;5.46;34.67
73671;BME280;61968;48.178;11.566;2024-02-14T08:17:00;96317.56;;;5.66;34.57
73671;BME280;61968;48.178;11.566;2024-02-14T08:19:26;96322.34;;;5.63;34.42
73671;BME280;61968;48.178;11.566;2024-02-14T08:21:53;96329.41;;;5.62;34.36
73671;BME280;61968;48.178;11.566;2024-02-14T08:24:24;96323.59;;;5.67;34.34
73671;BME280;61968;48.178;11.566;2024-02-14T08:26:51;96327.06;;;5.52;34.86
73671;BME280;61968;48.178;11.566;2024-02-14T08:29:18;96327.34;;;5.43;36.12
73671;BME280;61968;48.178;11.566;2024-02-14T08:31:44;96331.13;;;5.55;35.66
73671;BME280;61968;48.178;11.566;2024-02-14T08:34:11;96335.91;;;5.66;35.74
73671;BME280;61968;48.178;11.566;2024-02-14T08:36:38;96328.91;;;5.73;36.19
73671;BME280;61968;48.178;11.566;2024-02-14T08:39:06;96329.13;;;5.72;35.30
73671;BME280;61968;48.178;11.566;2024-02-14T08:41:33;96327.31;;;5.72;34.96
73671;BME280;61968;48.178;11.566;2024-02-14T08:44:00;96330.31;;;5.69;35.50
73671;BME280;61968;48.178;11.566;2024-02-14T08:46:26;96329.59;;;5.60;35.55
73671;BME280;61968;48.178;11.566;2024-02-14T08:48:53;96323.25;;;5.70;35.51
73671;BME280;61968;48.178;11.566;2024-02-14T08:51:19;96315.53;;;5.83;34.88
73671;BME280;61968;48.178;11.566;2024-02-14T08:53:46;96314.97;;;5.88;34.96
73671;BME280;61968;48.178;11.566;2024-02-14T08:56:13;96315.59;;;5.90;34.55
73671;BME280;61968;48.178;11.566;2024-02-14T08:58:41;96324.22;;;5.83;34.99
73671;BME280;61968;48.178;11.566;2024-02-14T09:01:07;96325.34;;;5.96;35.01
73671;BME280;61968;48.178;11.566;2024-02-14T09:03:34;96316.72;;;6.02;34.58
73671;BME280;61968;48.178;11.566;2024-02-14T09:06:00;96325.22;;;6.04;34.67
73671;BME280;61968;48.178;11.566;2024-02-14T09:08:28;96330.78;;;6.16;34.74
73671;BME280;61968;48.178;11.566;2024-02-14T09:10:56;96327.72;;;6.12;34.15
73671;BME280;61968;48.178;11.566;2024-02-14T09:13:23;96321.16;;;6.01;34.37
73671;BME280;61968;48.178;11.566;2024-02-14T09:15:52;96328.19;;;5.79;34.85
73671;BME280;61968;48.178;11.566;2024-02-14T09:18:19;96319.56;;;5.86;34.20
73671;BME280;61968;48.178;11.566;2024-02-14T09:20:46;96320.09;;;6.17;34.31
73671;BME280;61968;48.178;11.566;2024-02-14T09:23:12;96314.47;;;6.20;33.70
73671;BME280;61968;48.178;11.566;2024-02-14T09:25:42;96311.97;;;6.34;34.19
73671;BME280;61968;48.178;11.566;2024-02-14T09:28:08;96322.31;;;6.35;34.14
73671;BME280;61968;48.178;11.566;2024-02-14T09:30:35;96314.75;;;6.47;33.95
73671;BME280;61968;48.178;11.566;2024-02-14T09:33:03;96320.69;;;6.56;33.87
73671;BME280;61968;48.178;11.566;2024-02-14T09:35:30;96320.72;;;6.62;33.82
73671;BME280;61968;48.178;11.566;2024-02-14T09:37:55;96325.38;;;6.67;33.64
73671;BME280;61968;48.178;11.566;2024-02-14T09:40:22;96324.97;;;6.63;33.30
73671;BME280;61968;48.178;11.566;2024-02-14T09:42:54;96317.66;;;6.59;33.29
73671;BME280;61968;48.178;11.566;2024-02-14T09:45:22;96323.06;;;6.79;32.78
73671;BME280;61968;48.178;11.566;2024-02-14T09:47:51;96315.88;;;6.94;33.31
73671;BME280;61968;48.178;11.566;2024-02-14T09:50:20;96316.78;;;7.08;32.64
73671;BME280;61968;48.178;11.566;2024-02-14T09:52:47;96316.91;;;7.00;32.97
73671;BME280;61968;48.178;11.566;2024-02-14T09:55:15;96322.16;;;6.93;33.25
73671;BME280;61968;48.178;11.566;2024-02-14T09:57:42;96316.25;;;6.91;33.25
73671;BME280;61968;48.178;11.566;2024-02-14T10:00:10;96312.25;;;6.95;33.13
73671;BME280;61968;48.178;11.566;2024-02-14T10:02:36;96316.19;;;7.12;33.46
73671;BME280;61968;48.178;11.566;2024-02-14T10:05:04;96315.88;;;6.94;32.61
73671;BME280;61968;48.178;11.566;2024-02-14T10:07:39;96315.72;;;7.02;33.03
73671;BME280;61968;48.178;11.566;2024-02-14T10:10:06;96311.34;;;7.16;32.71
73671;BME280;61968;48.178;11.566;2024-02-14T10:12:33;96308.16;;;7.20;32.50
73671;BME280;61968;48.178;11.566;2024-02-14T10:14:59;96304.50;;;7.21;32.68
73671;BME280;61968;48.178;11.566;2024-02-14T10:17:26;96298.72;;;7.39;32.42
73671;BME280;61968;48.178;11.566;2024-02-14T10:19:57;96302.38;;;7.45;32.41
73671;BME280;61968;48.178;11.566;2024-02-14T10:22:23;96284.88;;;7.24;32.06
73671;BME280;61968;48.178;11.566;2024-02-14T10:24:51;96289.22;;;7.45;32.54
73671;BME280;61968;48.178;11.566;2024-02-14T10:27:18;96295.19;;;7.60;32.47
73671;BME280;61968;48.178;11.566;2024-02-14T10:29:44;96297.22;;;7.58;31.88
73671;BME280;61968;48.178;11.566;2024-02-14T10:32:14;96297.81;;;7.60;32.17
73671;BME280;61968;48.178;11.566;2024-02-14T10:34:42;96289.50;;;7.57;32.38
73671;BME280;61968;48.178;11.566;2024-02-14T10:37:13;96297.47;;;7.77;31.95
73671;BME280;61968;48.178;11.566;2024-02-14T10:39:41;96295.69;;;7.97;31.72
73671;BME280;61968;48.178;11.566;2024-02-14T10:42:09;96295.09;;;8.02;31.65
73671;BME280;61968;48.178;11.566;2024-02-14T10:44:36;96293.66;;;7.99;31.86
73671;BME280;61968;48.178;11.566;2024-02-14T10:47:05;96300.38;;;8.22;31.68
73671;BME280;61968;48.178;11.566;2024-02-14T10:49:35;96296.13;;;8.27;31.48
73671;BME280;61968;48.178;11.566;2024-02-14T10:52:05;96298.56;;;8.42;31.70
73671;BME280;61968;48.178;11.566;2024-02-14T10:54:34;96295.53;;;8.32;31.22
73671;BME280;61968;48.178;11.566;2024-02-14T10:57:05;96293.31;;;8.42;31.20
73671;BME280;61968;48.178;11.566;2024-02-14T10:59:39;96290.06;;;8.47;31.67
73671;BME280;61968;48.178;11.566;2024-02-14T11:02:08;96296.56;;;8.44;31.75
73671;BME280;61968;48.178;11.566;2024-02-14T11:04:35;96288.22;;;8.27;31.97
73671;BME280;61968;48.178;11.566;2024-02-14T11:07:02;96290.88;;;8.47;31.81
73671;BME280;61968;48.178;11.566;2024-02-14T11:09:32;96291.28;;;8.44;32.27
73671;BME280;61968;48.178;11.566;2024-02-14T11:12:00;96288.84;;;8.23;32.37
73671;BME280;61968;48.178;11.566;2024-02-14T11:14:29;96297.75;;;8.22;32.39
73671;BME280;61968;48.178;11.566;2024-02-14T11:16:59;96293.91;;;8.18;32.66
73671;BME280;61968;48.178;11.566;2024-02-14T11:19:31;96292.88;;;8.19;32.72
73671;BME280;61968;48.178;11.566;2024-02-14T11:21:59;96287.81;;;8.57;32.56
73671;BME280;61968;48.178;11.566;2024-02-14T11:24:28;96284.78;;;8.60;32.14
73671;BME280;61968;48.178;11.566;2024-02-14T11:26:56;96275.69;;;8.56;31.94
73671;BME280;61968;48.178;11.566;2024-02-14T11:29:29;96265.72;;;8.65;32.32
73671;BME280;61968;48.178;11.566;2024-02-14T11:32:00;96268.78;;;8.75;32.60
73671;BME280;61968;48.178;11.566;2024-02-14T11:34:27;96269.56;;;8.82;32.70
73671;BME280;61968;48.178;11.566;2024-02-14T11:36:57;96268.16;;;8.93;32.28
73671;BME280;61968;48.178;11.566;2024-02-14T11:39:25;96268.72;;;9.01;32.67
73671;BME280;61968;48.178;11.566;2024-02-14T11:41:51;96262.00;;;9.12;32.78
73671;BME280;61968;48.178;11.566;2024-02-14T11:44:18;96263.69;;;8.87;33.55
73671;BME280;61968;48.178;11.566;2024-02-14T11:46:47;96255.22;;;8.71;34.08
73671;BME280;61968;48.178;11.566;2024-02-14T11:49:15;96248.19;;;9.17;33.73
73671;BME280;61968;48.178;11.566;2024-02-14T11:51:42;96246.16;;;9.19;33.63
73671;BME280;61968;48.178;11.566;2024-02-14T11:54:09;96252.63;;;9.23;33.48
73671;BME280;61968;48.178;11.566;2024-02-14T11:56:37;96247.44;;;8.96;33.67
73671;BME280;61968;48.178;11.566;2024-02-14T11:59:05;96245.00;;;9.01;33.82
73671;BME280;61968;48.178;11.566;2024-02-14T12:01:33;96235.00;;;9.17;33.76
73671;BME280;61968;48.178;11.566;2024-02-14T12:04:00;96237.38;;;9.32;41.88
73671;BME280;61968;48.178;11.566;2024-02-14T12:06:29;96246.94;;;10.34;35.81
73671;BME280;61968;48.178;11.566;2024-02-14T12:08:56;96229.78;;;9.87;33.85
73671;BME280;61968;48.178;11.566;2024-02-14T12:11:26;96239.28;;;9.56;33.78
73671;BME280;61968;48.178;11.566;2024-02-14T12:13:53;96245.03;;;9.40;33.85
73671;BME280;61968;48.178;11.566;2024-02-14T12:16:19;96254.66;;;9.66;33.55
73671;BME280;61968;48.178;11.566;2024-02-14T12:18:46;96249.19;;;9.61;33.73
73671;BME280;61968;48.178;11.566;2024-02-14T12:21:13;96244.09;;;9.66;33.45
73671;BME280;61968;48.178;11.566;2024-02-14T12:23:41;96258.44;;;9.45;34.00
73671;BME280;61968;48.178;11.566;2024-02-14T12:26:07;96254.03;;;9.77;33.56
73671;BME280;61968;48.178;11.566;2024-02-14T12:28:40;96252.75;;;9.86;33.51
73671;BME280;61968;48.178;11.566;2024-02-14T12:31:07;96255.19;;;9.88;33.00
73671;BME280;61968;48.178;11.566;2024-02-14T12:33:33;96250.22;;;9.60;33.25
73671;BME280;61968;48.178;11.566;2024-02-14T12:36:00;96245.72;;;9.29;33.85
73671;BME280;61968;48.178;11.566;2024-02-14T12:38:28;96242.25;;;9.35;33.54
73671;BME280;61968;48.178;11.566;2024-02-14T12:40:56;96238.63;;;9.61;33.52
73671;BME280;61968;48.178;11.566;2024-02-14T12:43:22;96242.28;;;9.66;33.07
73671;BME280;61968;48.178;11.566;2024-02-14T12:45:49;96243.91;;;9.61;33.51
73671;BME280;61968;48.178;11.566;2024-02-14T12:48:22;96242.00;;;9.36;33.89
73671;BME280;61968;48.178;11.566;2024-02-14T12:50:51;96237.28;;;9.52;33.57
73671;BME280;61968;48.178;11.566;2024-02-14T12:53:18;96246.56;;;9.67;33.16
73671;BME280;61968;48.178;11.566;2024-02-14T12:55:46;96249.94;;;9.75;34.61
73671;BME280;61968;48.178;11.566;2024-02-14T12:58:14;96250.16;;;9.80;35.40
73671;BME280;61968;48.178;11.566;2024-02-14T13:00:41;96247.09;;;9.83;36.10